sensor_id;sensor_type;location;lat;lon;timestamp;P1;durP1;ratioP1;P2;durP2;ratioP2
33760;SDS011;20084;47.912;19.044;2024-02-28T00:01:38;7.60;;;5.80;;
33760;SDS011;20084;47.912;19.044;2024-02-28T00:04:13;8.52;;;6.32;;
33760;SDS011;20084;47.912;19.044;2024-02-28T00:06:39;11.65;;;7.05;;
33760;SDS011;20084;47.912;19.044;2024-02-28T00:09:04;10.77;;;7.85;;
33760;SDS011;20084;47.912;19.044;2024-02-28T00:11:30;11.98;;;7.70;;
33760;SDS011;20084;47.912;19.044;2024-02-28T00:13:57;14.35;;;10.10;;
33760;SDS011;20084;47.912;19.044;2024-02-28T00:16:25;15.68;;;11.80;;
33760;SDS011;20084;47.912;19.044;2024-02-28T00:18:50;19.08;;;12.23;;
33760;SDS011;20084;47.912;19.044;2024-02-28T00:21:16;16.00;;;11.57;;
33760;SDS011;20084;47.912;19.044;2024-02-28T00:23:42;16.77;;;10.38;;
33760;SDS011;20084;47.912;19.044;2024-02-28T00:26:08;14.55;;;9.90;;
33760;SDS011;20084;47.912;19.044;2024-02-28T00:28:33;14.98;;;10.82;;
33760;SDS011;20084;47.912;19.044;2024-02-28T00:30:59;14.85;;;10.15;;
33760;SDS011;20084;47.912;19.044;2024-02-28T00:33:24;14.80;;;9.82;;
33760;SDS011;20084;47.912;19.044;2024-02-28T00:35:50;11.02;;;8.38;;
33760;SDS011;20084;47.912;19.044;2024-02-28T00:38:15;11.38;;;8.25;;
33760;SDS011;20084;47.912;19.044;2024-02-28T00:40:41;8.82;;;7.07;;
33760;SDS011;20084;47.912;19.044;2024-02-28T00:43:07;8.23;;;4.45;;
33760;SDS011;20084;47.912;19.044;2024-02-28T00:45:32;5.90;;;4.43;;
33760;SDS011;20084;47.912;19.044;2024-02-28T00:47:58;7.93;;;5.95;;
33760;SDS011;20084;47.912;19.044;2024-02-28T00:50:23;8.85;;;7.03;;
33760;SDS011;20084;47.912;19.044;2024-02-28T00:52:49;11.73;;;7.95;;
33760;SDS011;20084;47.912;19.044;2024-02-28T00:55:15;12.93;;;8.23;;
33760;SDS011;20084;47.912;19.044;2024-02-28T00:57:40;8.55;;;6.55;;
33760;SDS011;20084;47.912;19.044;2024-02-28T01:00:06;9.98;;;6.60;;
33760;SDS011;20084;47.912;19.044;2024-02-28T01:02:34;8.18;;;5.43;;
33760;SDS011;20084;47.912;19.044;2024-02-28T01:05:00;6.43;;;4.28;;
33760;SDS011;20084;47.912;19.044;2024-02-28T01:07:26;4.78;;;3.85;;
33760;SDS011;20084;47.912;19.044;2024-02-28T01:09:51;6.50;;;4.72;;
33760;SDS011;20084;47.912;19.044;2024-02-28T01:12:17;8.15;;;6.13;;
33760;SDS011;20084;47.912;19.044;2024-02-28T01:14:43;8.40;;;5.65;;
33760;SDS011;20084;47.912;19.044;2024-02-28T01:17:09;10.25;;;6.57;;
33760;SDS011;20084;47.912;19.044;2024-02-28T01:19:34;9.52;;;6.18;;
33760;SDS011;20084;47.912;19.044;2024-02-28T01:22:00;8.25;;;6.75;;
33760;SDS011;20084;47.912;19.044;2024-02-28T01:24:25;9.27;;;5.78;;
33760;SDS011;20084;47.912;19.044;2024-02-28T01:26:51;6.03;;;4.40;;
33760;SDS011;20084;47.912;19.044;2024-02-28T01:29:17;5.82;;;4.07;;
33760;SDS011;20084;47.912;19.044;2024-02-28T01:31:42;8.80;;;6.07;;
33760;SDS011;20084;47.912;19.044;2024-02-28T01:34:08;11.23;;;6.70;;
33760;SDS011;20084;47.912;19.044;2024-02-28T01:36:34;7.78;;;5.32;;
33760;SDS011;20084;47.912;19.044;2024-02-28T01:38:59;6.80;;;5.80;;
33760;SDS011;20084;47.912;19.044;2024-02-28T01:41:25;8.07;;;5.07;;
33760;SDS011;20084;47.912;19.044;2024-02-28T01:43:50;7.30;;;5.38;;
33760;SDS011;20084;47.912;19.044;2024-02-28T01:46:28;10.13;;;6.78;;
33760;SDS011;20084;47.912;19.044;2024-02-28T01:48:54;9.02;;;6.20;;
33760;SDS011;20084;47.912;19.044;2024-02-28T01:51:21;11.90;;;5.55;;
33760;SDS011;20084;47.912;19.044;2024-02-28T01:53:49;5.57;;;4.88;;
33760;SDS011;20084;47.912;19.044;2024-02-28T01:56:16;4.13;;;3.33;;
33760;SDS011;20084;47.912;19.044;2024-02-28T01:58:44;7.35;;;3.47;;
33760;SDS011;20084;47.912;19.044;2024-02-28T02:01:12;6.65;;;4.03;;
33760;SDS011;20084;47.912;19.044;2024-02-28T02:03:39;5.75;;;4.05;;
33760;SDS011;20084;47.912;19.044;2024-02-28T02:06:05;7.75;;;3.67;;
33760;SDS011;20084;47.912;19.044;2024-02-28T02:08:31;7.40;;;4.55;;
33760;SDS011;20084;47.912;19.044;2024-02-28T02:10:58;6.25;;;4.78;;
33760;SDS011;20084;47.912;19.044;2024-02-28T02:13:24;7.22;;;5.00;;
33760;SDS011;20084;47.912;19.044;2024-02-28T02:15:50;14.88;;;9.77;;
33760;SDS011;20084;47.912;19.044;2024-02-28T02:18:15;15.95;;;10.15;;
33760;SDS011;20084;47.912;19.044;2024-02-28T02:20:42;18.95;;;10.43;;
33760;SDS011;20084;47.912;19.044;2024-02-28T02:23:09;18.95;;;11.80;;
33760;SDS011;20084;47.912;19.044;2024-02-28T02:25:43;14.25;;;9.98;;
33760;SDS011;20084;47.912;19.044;2024-02-28T02:28:12;11.82;;;7.63;;
33760;SDS011;20084;47.912;19.044;2024-02-28T02:30:38;17.35;;;10.43;;
33760;SDS011;20084;47.912;19.044;2024-02-28T02:33:05;10.93;;;5.00;;
33760;SDS011;20084;47.912;19.044;2024-02-28T02:35:31;11.88;;;7.50;;
33760;SDS011;20084;47.912;19.044;2024-02-28T02:37:57;17.80;;;10.40;;
33760;SDS011;20084;47.912;19.044;2024-02-28T02:40:23;13.40;;;9.23;;
33760;SDS011;20084;47.912;19.044;2024-02-28T02:42:49;19.00;;;12.15;;
33760;SDS011;20084;47.912;19.044;2024-02-28T02:45:15;13.45;;;8.18;;
33760;SDS011;20084;47.912;19.044;2024-02-28T02:47:41;15.23;;;9.90;;
33760;SDS011;20084;47.912;19.044;2024-02-28T02:50:08;13.52;;;9.13;;
33760;SDS011;20084;47.912;19.044;2024-02-28T02:52:34;14.77;;;9.90;;
33760;SDS011;20084;47.912;19.044;2024-02-28T02:55:00;17.23;;;9.02;;
33760;SDS011;20084;47.912;19.044;2024-02-28T02:57:26;13.23;;;7.75;;
33760;SDS011;20084;47.912;19.044;2024-02-28T02:59:52;22.02;;;12.95;;
33760;SDS011;20084;47.912;19.044;2024-02-28T03:02:17;21.65;;;15.95;;
33760;SDS011;20084;47.912;19.044;2024-02-28T03:04:43;33.05;;;20.65;;
33760;SDS011;20084;47.912;19.044;2024-02-28T03:07:08;27.02;;;16.42;;
33760;SDS011;20084;47.912;19.044;2024-02-28T03:09:34;25.45;;;16.33;;
33760;SDS011;20084;47.912;19.044;2024-02-28T03:11:59;26.02;;;16.02;;
33760;SDS011;20084;47.912;19.044;2024-02-28T03:14:25;26.58;;;16.80;;
33760;SDS011;20084;47.912;19.044;2024-02-28T03:16:52;20.60;;;15.02;;
33760;SDS011;20084;47.912;19.044;2024-02-28T03:19:18;17.65;;;12.18;;
33760;SDS011;20084;47.912;19.044;2024-02-28T03:21:44;14.77;;;8.82;;
33760;SDS011;20084;47.912;19.044;2024-02-28T03:24:10;8.55;;;6.55;;
33760;SDS011;20084;47.912;19.044;2024-02-28T03:26:36;12.38;;;6.55;;
33760;SDS011;20084;47.912;19.044;2024-02-28T03:29:01;10.73;;;7.47;;
33760;SDS011;20084;47.912;19.044;2024-02-28T03:31:27;9.10;;;6.22;;
33760;SDS011;20084;47.912;19.044;2024-02-28T03:33:53;11.45;;;6.47;;
33760;SDS011;20084;47.912;19.044;2024-02-28T03:36:19;11.43;;;7.32;;
33760;SDS011;20084;47.912;19.044;2024-02-28T03:38:45;11.75;;;7.45;;
33760;SDS011;20084;47.912;19.044;2024-02-28T03:41:10;9.18;;;6.80;;
33760;SDS011;20084;47.912;19.044;2024-02-28T03:43:36;8.55;;;6.70;;
33760;SDS011;20084;47.912;19.044;2024-02-28T03:46:01;8.43;;;6.13;;
33760;SDS011;20084;47.912;19.044;2024-02-28T03:48:27;12.80;;;6.10;;
33760;SDS011;20084;47.912;19.044;2024-02-28T03:50:53;8.27;;;6.40;;
33760;SDS011;20084;47.912;19.044;2024-02-28T03:53:18;5.60;;;4.82;;
33760;SDS011;20084;47.912;19.044;2024-02-28T03:55:44;9.55;;;6.85;;
33760;SDS011;20084;47.912;19.044;2024-02-28T03:58:10;12.02;;;6.97;;
33760;SDS011;20084;47.912;19.044;2024-02-28T04:00:36;9.23;;;6.03;;
33760;SDS011;20084;47.912;19.044;2024-02-28T04:03:03;9.07;;;4.60;;
33760;SDS011;20084;47.912;19.044;2024-02-28T04:05:29;6.13;;;4.28;;
33760;SDS011;20084;47.912;19.044;2024-02-28T04:07:55;7.05;;;4.35;;
33760;SDS011;20084;47.912;19.044;2024-02-28T04:10:21;5.32;;;4.15;;
33760;SDS011;20084;47.912;19.044;2024-02-28T04:12:46;6.68;;;4.68;;
33760;SDS011;20084;47.912;19.044;2024-02-28T04:15:12;7.47;;;5.15;;
33760;SDS011;20084;47.912;19.044;2024-02-28T04:17:38;7.20;;;5.40;;
33760;SDS011;20084;47.912;19.044;2024-02-28T04:20:08;10.50;;;6.65;;
33760;SDS011;20084;47.912;19.044;2024-02-28T04:22:34;18.77;;;10.98;;
33760;SDS011;20084;47.912;19.044;2024-02-28T04:25:00;18.70;;;12.57;;
33760;SDS011;20084;47.912;19.044;2024-02-28T04:27:25;11.35;;;7.57;;
33760;SDS011;20084;47.912;19.044;2024-02-28T04:29:51;5.72;;;4.47;;
33760;SDS011;20084;47.912;19.044;2024-02-28T04:32:16;9.60;;;6.03;;
33760;SDS011;20084;47.912;19.044;2024-02-28T04:34:42;5.03;;;4.38;;
33760;SDS011;20084;47.912;19.044;2024-02-28T04:37:08;6.57;;;4.45;;
33760;SDS011;20084;47.912;19.044;2024-02-28T04:39:33;6.00;;;4.57;;
33760;SDS011;20084;47.912;19.044;2024-02-28T04:41:59;5.13;;;4.60;;
33760;SDS011;20084;47.912;19.044;2024-02-28T04:44:24;6.68;;;4.40;;
33760;SDS011;20084;47.912;19.044;2024-02-28T04:46:50;9.25;;;6.70;;
33760;SDS011;20084;47.912;19.044;2024-02-28T04:49:15;16.13;;;10.35;;
33760;SDS011;20084;47.912;19.044;2024-02-28T04:51:41;16.20;;;8.18;;
33760;SDS011;20084;47.912;19.044;2024-02-28T04:54:07;12.88;;;8.55;;
33760;SDS011;20084;47.912;19.044;2024-02-28T04:56:32;11.88;;;8.05;;
33760;SDS011;20084;47.912;19.044;2024-02-28T04:58:58;8.70;;;6.25;;
33760;SDS011;20084;47.912;19.044;2024-02-28T05:01:23;7.07;;;4.88;;
33760;SDS011;20084;47.912;19.044;2024-02-28T05:03:49;6.85;;;5.13;;
33760;SDS011;20084;47.912;19.044;2024-02-28T05:06:15;11.95;;;5.90;;
33760;SDS011;20084;47.912;19.044;2024-02-28T05:08:41;6.25;;;4.80;;
33760;SDS011;20084;47.912;19.044;2024-02-28T05:11:06;8.02;;;4.72;;
33760;SDS011;20084;47.912;19.044;2024-02-28T05:13:32;9.27;;;6.82;;
33760;SDS011;20084;47.912;19.044;2024-02-28T05:15:58;11.25;;;6.85;;
33760;SDS011;20084;47.912;19.044;2024-02-28T05:18:23;10.23;;;7.30;;
33760;SDS011;20084;47.912;19.044;2024-02-28T05:20:50;8.75;;;6.35;;
33760;SDS011;20084;47.912;19.044;2024-02-28T05:23:15;6.57;;;4.70;;
33760;SDS011;20084;47.912;19.044;2024-02-28T05:25:41;6.22;;;4.60;;
33760;SDS011;20084;47.912;19.044;2024-02-28T05:28:06;9.88;;;6.38;;
33760;SDS011;20084;47.912;19.044;2024-02-28T05:30:32;8.75;;;6.03;;
33760;SDS011;20084;47.912;19.044;2024-02-28T05:32:58;7.53;;;5.30;;
33760;SDS011;20084;47.912;19.044;2024-02-28T05:35:23;8.50;;;5.85;;
33760;SDS011;20084;47.912;19.044;2024-02-28T05:37:52;7.55;;;5.43;;
33760;SDS011;20084;47.912;19.044;2024-02-28T05:40:19;7.78;;;5.38;;
33760;SDS011;20084;47.912;19.044;2024-02-28T05:42:45;10.82;;;6.30;;
33760;SDS011;20084;47.912;19.044;2024-02-28T05:45:10;10.10;;;6.30;;
33760;SDS011;20084;47.912;19.044;2024-02-28T05:47:37;14.45;;;6.57;;
33760;SDS011;20084;47.912;19.044;2024-02-28T05:50:03;16.05;;;7.03;;
33760;SDS011;20084;47.912;19.044;2024-02-28T05:52:30;14.18;;;6.72;;
33760;SDS011;20084;47.912;19.044;2024-02-28T05:54:56;13.20;;;4.80;;
33760;SDS011;20084;47.912;19.044;2024-02-28T05:57:21;16.83;;;5.00;;
33760;SDS011;20084;47.912;19.044;2024-02-28T05:59:48;7.78;;;5.22;;
33760;SDS011;20084;47.912;19.044;2024-02-28T06:02:14;5.80;;;4.45;;
33760;SDS011;20084;47.912;19.044;2024-02-28T06:04:40;10.90;;;5.70;;
33760;SDS011;20084;47.912;19.044;2024-02-28T06:07:05;8.57;;;5.43;;
33760;SDS011;20084;47.912;19.044;2024-02-28T06:09:31;7.35;;;5.30;;
33760;SDS011;20084;47.912;19.044;2024-02-28T06:11:57;8.18;;;5.70;;
33760;SDS011;20084;47.912;19.044;2024-02-28T06:14:22;21.23;;;6.13;;
33760;SDS011;20084;47.912;19.044;2024-02-28T06:16:48;22.38;;;6.70;;
33760;SDS011;20084;47.912;19.044;2024-02-28T06:19:14;9.23;;;7.32;;
33760;SDS011;20084;47.912;19.044;2024-02-28T06:21:39;10.40;;;5.63;;
33760;SDS011;20084;47.912;19.044;2024-02-28T06:24:05;23.98;;;6.80;;
33760;SDS011;20084;47.912;19.044;2024-02-28T06:26:31;41.75;;;7.68;;
33760;SDS011;20084;47.912;19.044;2024-02-28T06:28:57;20.02;;;7.63;;
33760;SDS011;20084;47.912;19.044;2024-02-28T06:31:31;13.27;;;8.05;;
33760;SDS011;20084;47.912;19.044;2024-02-28T06:33:57;38.90;;;10.20;;
33760;SDS011;20084;47.912;19.044;2024-02-28T06:36:22;15.73;;;8.35;;
33760;SDS011;20084;47.912;19.044;2024-02-28T06:38:48;28.80;;;8.85;;
33760;SDS011;20084;47.912;19.044;2024-02-28T06:41:14;74.70;;;14.90;;
33760;SDS011;20084;47.912;19.044;2024-02-28T06:43:40;17.77;;;8.35;;
33760;SDS011;20084;47.912;19.044;2024-02-28T06:46:05;10.35;;;7.32;;
33760;SDS011;20084;47.912;19.044;2024-02-28T06:48:31;12.10;;;7.60;;
33760;SDS011;20084;47.912;19.044;2024-02-28T06:50:56;14.93;;;7.50;;
33760;SDS011;20084;47.912;19.044;2024-02-28T06:53:23;16.75;;;8.82;;
33760;SDS011;20084;47.912;19.044;2024-02-28T06:55:48;11.70;;;8.07;;
33760;SDS011;20084;47.912;19.044;2024-02-28T06:58:14;11.70;;;8.02;;
33760;SDS011;20084;47.912;19.044;2024-02-28T07:00:40;13.82;;;7.47;;
33760;SDS011;20084;47.912;19.044;2024-02-28T07:03:06;9.15;;;7.05;;
33760;SDS011;20084;47.912;19.044;2024-02-28T07:05:32;12.90;;;7.25;;
33760;SDS011;20084;47.912;19.044;2024-02-28T07:07:58;13.32;;;8.25;;
33760;SDS011;20084;47.912;19.044;2024-02-28T07:10:27;13.60;;;7.90;;
33760;SDS011;20084;47.912;19.044;2024-02-28T07:12:52;13.98;;;8.50;;
33760;SDS011;20084;47.912;19.044;2024-02-28T07:15:18;33.08;;;9.00;;
33760;SDS011;20084;47.912;19.044;2024-02-28T07:17:46;25.77;;;7.18;;
33760;SDS011;20084;47.912;19.044;2024-02-28T07:20:12;84.90;;;10.52;;
33760;SDS011;20084;47.912;19.044;2024-02-28T07:22:38;38.55;;;8.38;;
33760;SDS011;20084;47.912;19.044;2024-02-28T07:25:04;27.33;;;8.23;;
33760;SDS011;20084;47.912;19.044;2024-02-28T07:27:32;20.50;;;7.78;;
33760;SDS011;20084;47.912;19.044;2024-02-28T07:29:59;9.00;;;6.63;;
33760;SDS011;20084;47.912;19.044;2024-02-28T07:32:24;13.20;;;6.63;;
33760;SDS011;20084;47.912;19.044;2024-02-28T07:34:50;12.13;;;6.95;;
33760;SDS011;20084;47.912;19.044;2024-02-28T07:37:15;16.77;;;6.57;;
33760;SDS011;20084;47.912;19.044;2024-02-28T07:39:41;21.25;;;6.60;;
33760;SDS011;20084;47.912;19.044;2024-02-28T07:42:06;13.90;;;6.35;;
33760;SDS011;20084;47.912;19.044;2024-02-28T07:44:32;9.73;;;6.60;;
33760;SDS011;20084;47.912;19.044;2024-02-28T07:46:58;17.48;;;6.38;;
33760;SDS011;20084;47.912;19.044;2024-02-28T07:49:24;15.73;;;5.80;;
33760;SDS011;20084;47.912;19.044;2024-02-28T07:51:50;11.75;;;5.93;;
33760;SDS011;20084;47.912;19.044;2024-02-28T07:54:16;9.40;;;6.10;;
33760;SDS011;20084;47.912;19.044;2024-02-28T07:56:43;8.85;;;6.05;;
33760;SDS011;20084;47.912;19.044;2024-02-28T07:59:09;13.38;;;6.15;;
33760;SDS011;20084;47.912;19.044;2024-02-28T08:01:34;10.20;;;6.65;;
33760;SDS011;20084;47.912;19.044;2024-02-28T08:04:01;11.32;;;5.63;;
33760;SDS011;20084;47.912;19.044;2024-02-28T08:06:27;12.13;;;6.20;;
33760;SDS011;20084;47.912;19.044;2024-02-28T08:08:53;10.63;;;5.82;;
33760;SDS011;20084;47.912;19.044;2024-02-28T08:11:19;13.80;;;6.93;;
33760;SDS011;20084;47.912;19.044;2024-02-28T08:13:44;22.02;;;6.32;;
33760;SDS011;20084;47.912;19.044;2024-02-28T08:16:10;16.33;;;6.07;;
33760;SDS011;20084;47.912;19.044;2024-02-28T08:18:36;13.02;;;5.63;;
33760;SDS011;20084;47.912;19.044;2024-02-28T08:21:01;27.85;;;6.90;;
33760;SDS011;20084;47.912;19.044;2024-02-28T08:23:28;10.40;;;5.45;;
33760;SDS011;20084;47.912;19.044;2024-02-28T08:25:57;8.60;;;5.13;;
33760;SDS011;20084;47.912;19.044;2024-02-28T08:28:22;10.20;;;6.72;;
33760;SDS011;20084;47.912;19.044;2024-02-28T08:30:49;27.70;;;6.63;;
33760;SDS011;20084;47.912;19.044;2024-02-28T08:33:14;13.32;;;5.22;;
33760;SDS011;20084;47.912;19.044;2024-02-28T08:35:40;26.20;;;6.20;;
33760;SDS011;20084;47.912;19.044;2024-02-28T08:38:05;10.02;;;5.57;;
33760;SDS011;20084;47.912;19.044;2024-02-28T08:40:31;11.63;;;5.88;;
33760;SDS011;20084;47.912;19.044;2024-02-28T08:42:57;10.88;;;5.35;;
33760;SDS011;20084;47.912;19.044;2024-02-28T08:45:22;13.77;;;7.88;;
33760;SDS011;20084;47.912;19.044;2024-02-28T08:47:48;12.93;;;6.28;;
33760;SDS011;20084;47.912;19.044;2024-02-28T08:50:13;16.77;;;6.30;;
33760;SDS011;20084;47.912;19.044;2024-02-28T08:52:39;7.13;;;5.03;;
33760;SDS011;20084;47.912;19.044;2024-02-28T08:55:05;9.75;;;4.90;;
33760;SDS011;20084;47.912;19.044;2024-02-28T08:57:31;10.32;;;5.10;;
33760;SDS011;20084;47.912;19.044;2024-02-28T08:59:56;10.07;;;4.63;;
33760;SDS011;20084;47.912;19.044;2024-02-28T09:02:22;13.60;;;5.22;;
33760;SDS011;20084;47.912;19.044;2024-02-28T09:04:48;7.55;;;5.13;;
33760;SDS011;20084;47.912;19.044;2024-02-28T09:07:19;10.70;;;5.38;;
33760;SDS011;20084;47.912;19.044;2024-02-28T09:09:45;11.02;;;5.47;;
33760;SDS011;20084;47.912;19.044;2024-02-28T09:12:11;7.20;;;5.18;;
33760;SDS011;20084;47.912;19.044;2024-02-28T09:14:37;8.38;;;4.72;;
33760;SDS011;20084;47.912;19.044;2024-02-28T09:17:03;9.13;;;4.65;;
33760;SDS011;20084;47.912;19.044;2024-02-28T09:19:29;9.10;;;5.30;;
33760;SDS011;20084;47.912;19.044;2024-02-28T09:21:55;10.40;;;5.35;;
33760;SDS011;20084;47.912;19.044;2024-02-28T09:24:22;11.15;;;5.35;;
33760;SDS011;20084;47.912;19.044;2024-02-28T09:26:48;10.98;;;5.70;;
33760;SDS011;20084;47.912;19.044;2024-02-28T09:29:14;9.50;;;5.07;;
33760;SDS011;20084;47.912;19.044;2024-02-28T09:31:39;11.52;;;5.32;;
33760;SDS011;20084;47.912;19.044;2024-02-28T09:34:05;9.32;;;5.60;;
33760;SDS011;20084;47.912;19.044;2024-02-28T09:36:43;10.13;;;4.70;;
33760;SDS011;20084;47.912;19.044;2024-02-28T09:39:10;8.98;;;4.97;;
33760;SDS011;20084;47.912;19.044;2024-02-28T09:41:37;9.75;;;4.75;;
33760;SDS011;20084;47.912;19.044;2024-02-28T09:44:03;12.50;;;5.15;;
33760;SDS011;20084;47.912;19.044;2024-02-28T09:46:32;8.70;;;5.43;;
33760;SDS011;20084;47.912;19.044;2024-02-28T09:49:02;9.15;;;5.05;;
33760;SDS011;20084;47.912;19.044;2024-02-28T09:51:30;9.75;;;5.32;;
33760;SDS011;20084;47.912;19.044;2024-02-28T09:56:28;12.10;;;4.90;;
33760;SDS011;20084;47.912;19.044;2024-02-28T09:58:54;10.27;;;4.70;;
33760;SDS011;20084;47.912;19.044;2024-02-28T10:01:21;9.02;;;5.38;;
33760;SDS011;20084;47.912;19.044;2024-02-28T10:03:47;8.13;;;4.78;;
33760;SDS011;20084;47.912;19.044;2024-02-28T10:06:17;10.68;;;6.82;;
33760;SDS011;20084;47.912;19.044;2024-02-28T10:08:44;14.73;;;6.82;;
33760;SDS011;20084;47.912;19.044;2024-02-28T10:11:16;11.93;;;5.72;;
33760;SDS011;20084;47.912;19.044;2024-02-28T10:13:43;6.40;;;4.45;;
33760;SDS011;20084;47.912;19.044;2024-02-28T10:16:09;11.95;;;5.28;;
33760;SDS011;20084;47.912;19.044;2024-02-28T10:18:34;11.68;;;5.43;;
33760;SDS011;20084;47.912;19.044;2024-02-28T10:21:00;10.80;;;5.35;;
33760;SDS011;20084;47.912;19.044;2024-02-28T10:23:26;9.27;;;5.25;;
33760;SDS011;20084;47.912;19.044;2024-02-28T10:25:52;12.50;;;5.40;;
33760;SDS011;20084;47.912;19.044;2024-02-28T10:28:18;10.35;;;5.10;;
33760;SDS011;20084;47.912;19.044;2024-02-28T10:30:43;10.50;;;5.80;;
33760;SDS011;20084;47.912;19.044;2024-02-28T10:33:12;8.48;;;5.35;;
33760;SDS011;20084;47.912;19.044;2024-02-28T10:35:39;10.10;;;4.95;;
33760;SDS011;20084;47.912;19.044;2024-02-28T10:38:06;12.18;;;5.43;;
33760;SDS011;20084;47.912;19.044;2024-02-28T10:40:31;10.68;;;6.25;;
33760;SDS011;20084;47.912;19.044;2024-02-28T10:42:57;13.02;;;5.65;;
33760;SDS011;20084;47.912;19.044;2024-02-28T10:45:24;11.18;;;6.32;;
33760;SDS011;20084;47.912;19.044;2024-02-28T10:47:54;11.65;;;5.68;;
33760;SDS011;20084;47.912;19.044;2024-02-28T10:50:20;11.20;;;5.93;;
33760;SDS011;20084;47.912;19.044;2024-02-28T10:52:46;8.60;;;5.70;;
33760;SDS011;20084;47.912;19.044;2024-02-28T10:55:17;13.10;;;6.20;;
33760;SDS011;20084;47.912;19.044;2024-02-28T10:57:48;9.82;;;5.13;;
33760;SDS011;20084;47.912;19.044;2024-02-28T11:00:23;9.48;;;5.35;;
33760;SDS011;20084;47.912;19.044;2024-02-28T11:02:49;8.63;;;5.45;;
33760;SDS011;20084;47.912;19.044;2024-02-28T11:05:14;10.65;;;6.00;;
33760;SDS011;20084;47.912;19.044;2024-02-28T11:07:41;8.40;;;5.95;;
33760;SDS011;20084;47.912;19.044;2024-02-28T11:10:07;19.30;;;6.25;;
33760;SDS011;20084;47.912;19.044;2024-02-28T11:12:35;10.30;;;5.63;;
33760;SDS011;20084;47.912;19.044;2024-02-28T11:15:02;10.20;;;6.05;;
33760;SDS011;20084;47.912;19.044;2024-02-28T11:17:31;10.63;;;5.85;;
33760;SDS011;20084;47.912;19.044;2024-02-28T11:19:57;14.88;;;5.70;;
33760;SDS011;20084;47.912;19.044;2024-02-28T11:22:27;9.55;;;6.00;;
33760;SDS011;20084;47.912;19.044;2024-02-28T11:24:53;9.23;;;5.43;;
33760;SDS011;20084;47.912;19.044;2024-02-28T11:27:20;12.07;;;6.20;;
33760;SDS011;20084;47.912;19.044;2024-02-28T11:29:46;12.13;;;5.47;;
33760;SDS011;20084;47.912;19.044;2024-02-28T11:32:13;14.10;;;5.70;;
33760;SDS011;20084;47.912;19.044;2024-02-28T11:34:39;8.70;;;5.43;;
33760;SDS011;20084;47.912;19.044;2024-02-28T11:37:09;11.07;;;5.75;;
33760;SDS011;20084;47.912;19.044;2024-02-28T11:39:35;12.18;;;5.70;;
33760;SDS011;20084;47.912;19.044;2024-02-28T11:42:14;9.48;;;6.25;;
33760;SDS011;20084;47.912;19.044;2024-02-28T11:44:41;9.35;;;5.90;;
33760;SDS011;20084;47.912;19.044;2024-02-28T11:47:10;9.45;;;6.00;;
33760;SDS011;20084;47.912;19.044;2024-02-28T11:49:36;8.32;;;5.50;;
33760;SDS011;20084;47.912;19.044;2024-02-28T11:52:02;11.48;;;6.00;;
33760;SDS011;20084;47.912;19.044;2024-02-28T11:54:29;12.18;;;6.30;;
33760;SDS011;20084;47.912;19.044;2024-02-28T11:56:55;7.88;;;5.78;;
33760;SDS011;20084;47.912;19.044;2024-02-28T11:59:20;12.85;;;6.35;;
33760;SDS011;20084;47.912;19.044;2024-02-28T12:01:46;12.43;;;5.82;;
33760;SDS011;20084;47.912;19.044;2024-02-28T12:04:12;11.55;;;5.95;;
33760;SDS011;20084;47.912;19.044;2024-02-28T12:06:38;12.90;;;6.50;;
33760;SDS011;20084;47.912;19.044;2024-02-28T12:09:08;11.70;;;6.18;;
33760;SDS011;20084;47.912;19.044;2024-02-28T12:11:35;10.20;;;5.63;;
33760;SDS011;20084;47.912;19.044;2024-02-28T12:14:05;10.52;;;6.47;;
33760;SDS011;20084;47.912;19.044;2024-02-28T12:19:04;11.98;;;6.13;;
33760;SDS011;20084;47.912;19.044;2024-02-28T12:21:39;13.27;;;6.15;;
33760;SDS011;20084;47.912;19.044;2024-02-28T12:24:08;12.35;;;6.07;;
33760;SDS011;20084;47.912;19.044;2024-02-28T12:26:34;11.63;;;5.75;;
33760;SDS011;20084;47.912;19.044;2024-02-28T12:29:00;10.60;;;5.78;;
33760;SDS011;20084;47.912;19.044;2024-02-28T12:31:26;9.98;;;5.50;;
33760;SDS011;20084;47.912;19.044;2024-02-28T12:33:52;12.23;;;6.18;;
33760;SDS011;20084;47.912;19.044;2024-02-28T12:36:19;12.80;;;6.13;;
33760;SDS011;20084;47.912;19.044;2024-02-28T12:38:45;10.27;;;6.13;;
33760;SDS011;20084;47.912;19.044;2024-02-28T12:41:11;11.15;;;5.93;;
33760;SDS011;20084;47.912;19.044;2024-02-28T12:43:38;9.65;;;5.68;;
33760;SDS011;20084;47.912;19.044;2024-02-28T12:46:04;8.60;;;5.60;;
33760;SDS011;20084;47.912;19.044;2024-02-28T12:48:30;9.30;;;5.82;;
33760;SDS011;20084;47.912;19.044;2024-02-28T12:51:01;10.38;;;6.07;;
33760;SDS011;20084;47.912;19.044;2024-02-28T12:53:27;11.30;;;6.18;;
33760;SDS011;20084;47.912;19.044;2024-02-28T12:55:53;11.88;;;6.10;;
33760;SDS011;20084;47.912;19.044;2024-02-28T12:58:18;10.60;;;5.47;;
33760;SDS011;20084;47.912;19.044;2024-02-28T13:00:44;9.18;;;6.07;;
33760;SDS011;20084;47.912;19.044;2024-02-28T13:03:09;8.65;;;6.25;;
33760;SDS011;20084;47.912;19.044;2024-02-28T13:05:35;10.27;;;6.03;;
33760;SDS011;20084;47.912;19.044;2024-02-28T13:08:01;13.93;;;6.45;;
33760;SDS011;20084;47.912;19.044;2024-02-28T13:10:26;17.52;;;6.72;;
33760;SDS011;20084;47.912;19.044;2024-02-28T13:12:52;7.22;;;5.80;;
33760;SDS011;20084;47.912;19.044;2024-02-28T13:15:18;12.10;;;6.25;;
33760;SDS011;20084;47.912;19.044;2024-02-28T13:17:43;10.27;;;6.47;;
33760;SDS011;20084;47.912;19.044;2024-02-28T13:20:12;10.85;;;7.10;;
33760;SDS011;20084;47.912;19.044;2024-02-28T13:22:37;11.40;;;6.38;;
33760;SDS011;20084;47.912;19.044;2024-02-28T13:25:03;11.18;;;5.75;;
33760;SDS011;20084;47.912;19.044;2024-02-28T13:27:29;11.38;;;6.60;;
33760;SDS011;20084;47.912;19.044;2024-02-28T13:29:54;9.43;;;6.00;;
33760;SDS011;20084;47.912;19.044;2024-02-28T13:32:20;9.90;;;5.85;;
33760;SDS011;20084;47.912;19.044;2024-02-28T13:34:45;18.73;;;7.18;;
33760;SDS011;20084;47.912;19.044;2024-02-28T13:37:11;14.30;;;6.47;;
33760;SDS011;20084;47.912;19.044;2024-02-28T13:39:37;19.52;;;7.20;;
33760;SDS011;20084;47.912;19.044;2024-02-28T13:42:02;21.75;;;8.30;;
33760;SDS011;20084;47.912;19.044;2024-02-28T13:44:31;14.75;;;6.97;;
33760;SDS011;20084;47.912;19.044;2024-02-28T13:46:57;15.85;;;7.93;;
33760;SDS011;20084;47.912;19.044;2024-02-28T13:49:22;19.38;;;10.35;;
33760;SDS011;20084;47.912;19.044;2024-02-28T13:51:48;9.15;;;5.70;;
33760;SDS011;20084;47.912;19.044;2024-02-28T13:54:14;12.43;;;6.18;;
33760;SDS011;20084;47.912;19.044;2024-02-28T13:56:40;10.10;;;7.05;;
33760;SDS011;20084;47.912;19.044;2024-02-28T13:59:06;12.55;;;6.75;;
33760;SDS011;20084;47.912;19.044;2024-02-28T14:01:31;12.48;;;7.25;;
33760;SDS011;20084;47.912;19.044;2024-02-28T14:03:58;11.27;;;6.05;;
33760;SDS011;20084;47.912;19.044;2024-02-28T14:06:23;8.98;;;5.63;;
33760;SDS011;20084;47.912;19.044;2024-02-28T14:08:49;10.57;;;5.93;;
33760;SDS011;20084;47.912;19.044;2024-02-28T14:11:17;17.20;;;6.93;;
33760;SDS011;20084;47.912;19.044;2024-02-28T14:13:43;11.80;;;6.47;;
33760;SDS011;20084;47.912;19.044;2024-02-28T14:16:08;9.38;;;7.00;;
33760;SDS011;20084;47.912;19.044;2024-02-28T14:18:34;16.25;;;6.80;;
33760;SDS011;20084;47.912;19.044;2024-02-28T14:21:00;8.15;;;6.35;;
33760;SDS011;20084;47.912;19.044;2024-02-28T14:23:27;10.77;;;6.10;;
33760;SDS011;20084;47.912;19.044;2024-02-28T14:25:53;8.75;;;5.95;;